M I D A S
Marine Information and Data Acquisition System
Tripno 2197 of the Zeeleeuw from 2011-10-13 07:27:03 to 2011-10-13 12:12:58
Back to CruiseResearch ActivitiesStationsMapUnderway DataData graphs

EquipmentUnitsComment
TimeDGPSUTC
LatitudeDGPSDM.mWGS84
LongitudeDGPSDM.mWGS84
HeadingGyrodeg 
SOGDGPSknotsSpeed over ground
COGDGPSdegCourse over ground
DepthEcho soundermeters200 kHz
Missing or incorrect values are displayed as -999
Navigation data collected by the RV Zeeleeuw from 2011-10-13 07:23:24 to 2011-10-13 12:28:02
Time Latitude Longitude Heading SOG COG Depth
2011-10-13 07:24:32 51°13.657 2°55.911 108.5 4.6 289 -999
2011-10-13 07:25:32 51°13.682 2°55.809 111.4 3.5 294 -999
2011-10-13 07:26:32 51°13.697 2°55.74 97.2 0.8 296 -999
2011-10-13 07:27:31 51°13.703 2°55.751 45.1 0.6 225 11.4
2011-10-13 07:28:32 51°13.694 2°55.736 13.4 2 5 -999
2011-10-13 07:29:31 51°13.744 2°55.707 334.2 4.4 335 10.1
2011-10-13 07:30:31 51°13.824 2°55.646 335.1 5.8 336 10.9
2011-10-13 07:31:29 51°13.92 2°55.593 343.4 6.8 343 10.2
2011-10-13 07:32:28 51°14.033 2°55.529 337.6 7.7 336 10.2
2011-10-13 07:33:30 51°14.149 2°55.427 329.6 7.7 329 -999
2011-10-13 07:34:32 51°14.261 2°55.314 327.8 7.7 327 9.9
2011-10-13 07:35:32 51°14.38 2°55.191 326.5 9 326 10.1
2011-10-13 07:36:31 51°14.509 2°55.053 326.7 10.3 326 10.6
2011-10-13 07:37:28 51°14.651 2°54.87 326.3 12.1 321 10.5
2011-10-13 07:38:29 51°14.818 2°54.674 331.1 12.2 328 10.6
2011-10-13 07:39:28 51°14.988 2°54.512 339.3 12 334 10.8
2011-10-13 07:40:28 51°15.16 2°54.358 337.6 11.7 335 8.7
2011-10-13 07:41:28 51°15.344 2°54.322 7.4 11.1 4 8.3
2011-10-13 07:42:28 51°15.529 2°54.354 8 11.2 2 8.7
2011-10-13 07:43:28 51°15.718 2°54.324 358.1 11.6 353 9.2
2011-10-13 07:44:28 51°15.909 2°54.282 356.3 11.6 350 9.5
2011-10-13 07:45:28 51°16.092 2°54.235 355.7 10 350 9.8
2011-10-13 07:46:28 51°16.209 2°54.184 352.5 5.3 344 10.3
2011-10-13 07:47:28 51°16.261 2°54.189 39.7 2 36 10.2
2011-10-13 07:48:28 51°16.262 2°54.234 92.8 1.6 122 10
2011-10-13 07:49:28 51°16.247 2°54.224 118.4 1.3 227 10.1
2011-10-13 07:50:28 51°16.23 2°54.196 144.4 1.4 229 10.2
2011-10-13 07:51:28 51°16.213 2°54.165 163.7 1.6 227 10.2
2011-10-13 07:52:28 51°16.195 2°54.133 180.2 1.6 228 10.4
2011-10-13 07:53:28 51°16.177 2°54.1 187.2 1.7 231 10.2
2011-10-13 07:54:28 51°16.159 2°54.067 189.7 1.7 229 10.3
2011-10-13 07:55:28 51°16.141 2°54.035 188 1.7 228 10.2
2011-10-13 07:56:28 51°16.123 2°54.003 186.3 1.6 224 10.3
2011-10-13 07:57:28 51°16.104 2°53.971 184.7 1.7 228 10.3
2011-10-13 07:58:28 51°16.073 2°53.941 178.9 3.9 193 10.4
2011-10-13 07:59:28 51°15.964 2°53.889 196.5 9.1 203 10.1
2011-10-13 08:00:28 51°15.795 2°53.739 206.9 13.2 213 10.2
2011-10-13 08:01:28 51°15.613 2°53.541 212.7 13.3 215 10.4
2011-10-13 08:02:28 51°15.432 2°53.337 211.9 13.3 215 10.1
2011-10-13 08:03:28 51°15.262 2°53.11 218.2 13.4 220 9.7
2011-10-13 08:04:28 51°15.09 2°52.887 216 13.3 218 9.7
2011-10-13 08:05:28 51°14.918 2°52.666 216.8 13.1 217 9.3
2011-10-13 08:06:28 51°14.736 2°52.472 210.1 13.4 215 9
2011-10-13 08:07:28 51°14.594 2°52.211 228.7 12.9 226 8.5
2011-10-13 08:08:28 51°14.427 2°52.003 223.6 11.9 229 8.5
2011-10-13 08:09:28 51°14.373 2°51.811 262.8 5.1 255 8.4
2011-10-13 08:10:28 51°14.364 2°51.709 276.8 4.4 266 8.3
2011-10-13 08:11:28 51°14.369 2°51.585 292 4.8 280 8.7
2011-10-13 08:12:28 51°14.39 2°51.462 297.3 4.7 280 8.6
2011-10-13 08:13:28 51°14.394 2°51.351 281.6 3.9 268 8.6
2011-10-13 08:14:28 51°14.387 2°51.253 273.5 3.6 259 8.8
2011-10-13 08:15:28 51°14.373 2°51.163 262.2 3.5 253 8.9
2011-10-13 08:16:28 51°14.351 2°51.076 256.2 3.6 247 8.8
2011-10-13 08:17:28 51°14.328 2°50.99 254.8 3.5 249 8.7
2011-10-13 08:18:28 51°14.304 2°50.905 252.1 3.5 246 8.7
2011-10-13 08:19:28 51°14.277 2°50.821 249 3.5 243 8.8
2011-10-13 08:20:28 51°14.25 2°50.738 246.3 3.5 246 8.7
2011-10-13 08:21:28 51°14.22 2°50.657 245.3 3.6 237 9
2011-10-13 08:22:28 51°14.191 2°50.574 247.7 3.6 239 8.8
2011-10-13 08:23:28 51°14.163 2°50.49 250 3.6 241 8.6
2011-10-13 08:24:28 51°14.137 2°50.406 251.2 3.5 245 8.6
2011-10-13 08:25:28 51°14.112 2°50.32 252.4 3.6 247 8.6
2011-10-13 08:26:28 51°14.086 2°50.234 250.3 3.6 245 8.6
2011-10-13 08:27:28 51°14.059 2°50.148 252.9 3.5 248 8.5
2011-10-13 08:28:28 51°14.037 2°50.062 258.5 3.5 247 8.6
2011-10-13 08:29:28 51°14.018 2°49.974 263.4 3.5 252 8.7
2011-10-13 08:30:28 51°13.999 2°49.887 261.7 3.5 251 8.6
2011-10-13 08:31:28 51°13.979 2°49.798 261.5 3.5 253 8.4
2011-10-13 08:32:28 51°13.959 2°49.709 258.8 3.6 250 8.4
2011-10-13 08:33:28 51°13.937 2°49.62 257 3.7 249 8.5
2011-10-13 08:34:28 51°13.912 2°49.531 256.2 3.6 250 8.6
2011-10-13 08:35:28 51°13.891 2°49.443 260.1 3.6 251 8.7
2011-10-13 08:36:28 51°13.871 2°49.353 261.1 3.6 251 8.8
2011-10-13 08:37:28 51°13.85 2°49.265 261.5 3.5 251 9.1
2011-10-13 08:38:28 51°13.831 2°49.176 261.4 3.5 252 9
2011-10-13 08:39:28 51°13.81 2°49.089 258.7 3.6 246 9.2
2011-10-13 08:40:28 51°13.788 2°49 257 3.6 249 8.9
2011-10-13 08:41:28 51°13.765 2°48.912 258.8 3.6 251 9
2011-10-13 08:42:28 51°13.75 2°48.822 274.6 3.4 259 9.4
2011-10-13 08:43:28 51°13.745 2°48.737 288.2 3.1 269 9.8
2011-10-13 08:44:28 51°13.748 2°48.655 299.8 3 278 10
2011-10-13 08:45:28 51°13.756 2°48.58 314.4 3.1 290 10.2
2011-10-13 08:46:28 51°13.796 2°48.502 339 3.3 318 10.7
2011-10-13 08:47:28 51°13.826 2°48.456 352.8 1.9 314 10.9
2011-10-13 08:48:28 51°13.841 2°48.423 357.2 1.4 296 11
2011-10-13 08:49:28 51°13.857 2°48.386 346.6 2.8 317 11.1
2011-10-13 08:50:28 51°13.884 2°48.263 275.9 7.2 264 11
2011-10-13 08:51:28 51°13.803 2°48.066 227.7 10 230 11
2011-10-13 08:52:28 51°13.671 2°47.814 232.2 13.4 233 11
2011-10-13 08:53:28 51°13.546 2°47.52 234.5 13.4 236 10.9
2011-10-13 08:54:28 51°13.428 2°47.216 240.7 13.5 241 10.7
2011-10-13 08:55:28 51°13.314 2°46.908 236.6 13.6 237 10.8
2011-10-13 08:56:28 51°13.177 2°46.623 230.6 13.7 233 10.6
2011-10-13 08:57:28 51°13.05 2°46.328 235.7 13.5 236 10.4
2011-10-13 08:58:28 51°12.912 2°46.048 234.2 13.4 234 10.1
2011-10-13 08:59:28 51°12.806 2°45.737 243 13.3 243 8.7
2011-10-13 09:00:28 51°12.701 2°45.428 241.1 13.3 242 8.3
2011-10-13 09:01:28 51°12.604 2°45.116 244.4 13.1 244 8.1
2011-10-13 09:02:28 51°12.501 2°44.807 243 13.1 240 8.1
2011-10-13 09:03:28 51°12.404 2°44.495 246 13.2 246 8.6
2011-10-13 09:04:28 51°12.317 2°44.175 247.1 13.4 248 9.6
2011-10-13 09:05:28 51°12.237 2°43.849 251.4 13.2 249 9.6
2011-10-13 09:06:28 51°12.158 2°43.521 247.1 13.4 247 10.5
2011-10-13 09:07:28 51°12.071 2°43.198 246.3 13.3 245 9.8
2011-10-13 09:08:28 51°11.945 2°42.908 226.8 13.3 227 9.7
2011-10-13 09:09:28 51°11.794 2°42.652 230 13.3 232 9.5
2011-10-13 09:10:28 51°11.655 2°42.378 232.3 13.3 233 9.6
2011-10-13 09:11:28 51°11.511 2°42.111 227.1 13.3 231 10.5
2011-10-13 09:12:28 51°11.372 2°41.838 233.1 13.3 232 11.2
2011-10-13 09:13:28 51°11.241 2°41.552 233.8 13.3 235 11.8
2011-10-13 09:14:28 51°11.1 2°41.281 228.7 13.4 230 12.3
2011-10-13 09:15:28 51°10.955 2°41.015 223.8 13.5 225 12.5
2011-10-13 09:16:28 51°10.798 2°40.764 222.4 13.4 223 12.8
2011-10-13 09:17:28 51°10.646 2°40.506 228.3 13.4 230 13
2011-10-13 09:18:28 51°10.499 2°40.238 226.3 13.4 227 13.3
2011-10-13 09:19:28 51°10.344 2°39.979 221.2 13.5 224 13.1
2011-10-13 09:20:28 51°10.194 2°39.714 226.3 13.4 229 12.6
2011-10-13 09:21:28 51°10.047 2°39.442 229.5 13.4 233 12.3
2011-10-13 09:22:28 51°9.918 2°39.153 237.3 13.4 238 12
2011-10-13 09:23:28 51°9.797 2°38.856 239.4 13.3 240 11.6
2011-10-13 09:24:28 51°9.68 2°38.555 236.7 13.3 239 11.4
2011-10-13 09:25:28 51°9.576 2°38.243 241.3 13.2 243 11.5
2011-10-13 09:26:28 51°9.46 2°37.944 233.9 13.3 236 11.3
2011-10-13 09:27:28 51°9.367 2°37.632 258.2 13 261 11
2011-10-13 09:28:28 51°9.372 2°37.286 280.2 13.1 278 12.6
2011-10-13 09:29:28 51°9.422 2°36.946 282.8 13.3 277 15.4
2011-10-13 09:30:28 51°9.402 2°36.628 249.2 8.8 248 15.7
2011-10-13 09:31:28 51°9.351 2°36.506 209.1 3.2 222 15.8
2011-10-13 09:32:28 51°9.33 2°36.467 175.3 1.5 239 15.8
2011-10-13 09:33:28 51°9.317 2°36.431 168.7 1.5 242 15.9
2011-10-13 09:34:28 51°9.305 2°36.395 171.2 1.5 243 16
2011-10-13 09:35:28 51°9.294 2°36.358 173.7 1.6 245 16
2011-10-13 09:36:28 51°9.282 2°36.32 178.4 1.6 245 16.1
2011-10-13 09:37:28 51°9.271 2°36.282 183.1 1.6 245 16
2011-10-13 09:38:28 51°9.248 2°36.242 185.1 3.8 204 15.9
2011-10-13 09:39:28 51°9.152 2°36.291 131.3 8.4 139 14.9
2011-10-13 09:40:28 51°9.067 2°36.501 111.2 9.4 118 11.9
2011-10-13 09:41:28 51°8.989 2°36.6 150.3 4.4 165 10.3
2011-10-13 09:42:28 51°8.957 2°36.594 194.4 0.5 267 9.9
2011-10-13 09:43:32 51°8.954 2°36.576 206.9 0.7 247 -999
2011-10-13 09:44:32 51°8.949 2°36.558 207.2 0.9 245 -999
2011-10-13 09:45:32 51°8.942 2°36.539 203 0.8 238 9.9
2011-10-13 09:46:30 51°8.935 2°36.518 199.4 1 243 9.9
2011-10-13 09:47:28 51°8.927 2°36.496 203.4 1 240 9.9
2011-10-13 09:48:28 51°8.916 2°36.467 238.9 1.5 238 9.7
2011-10-13 09:49:28 51°8.906 2°36.428 276.1 1.6 253 10
2011-10-13 09:50:28 51°8.901 2°36.39 288.2 1.9 264 9.8
2011-10-13 09:51:28 51°8.903 2°36.344 307.4 1.5 272 9.9
2011-10-13 09:52:28 51°8.901 2°36.305 304.6 1.5 260 10.1
2011-10-13 09:53:30 51°8.896 2°36.27 303.3 1.2 260 10.1
2011-10-13 09:54:31 51°8.894 2°36.237 311.4 1.5 278 10.1
2011-10-13 09:55:31 51°8.9 2°36.2 325.2 1.8 297 10.5
2011-10-13 09:56:29 51°8.956 2°36.12 327.2 7.9 322 12.3
2011-10-13 09:57:28 51°9.102 2°35.952 328.1 12.1 324 16.1
2011-10-13 09:58:28 51°9.271 2°35.775 330.6 12.2 326 16.9
2011-10-13 09:59:28 51°9.436 2°35.583 330.1 12.2 327 17.4
2011-10-13 10:00:28 51°9.602 2°35.398 326.5 12.1 323 18.6
2011-10-13 10:01:28 51°9.772 2°35.225 329.6 12.1 326 19.1
2011-10-13 10:02:28 51°9.936 2°35.04 326.8 12 325 12.9
2011-10-13 10:03:28 51°10.102 2°34.872 331.4 11.9 329 11.7
2011-10-13 10:04:28 51°10.263 2°34.705 329.9 9.9 328 10.2
2011-10-13 10:05:28 51°10.309 2°34.574 272.7 4.5 262 9.9
2011-10-13 10:06:28 51°10.275 2°34.497 222.2 2.5 223 10
2011-10-13 10:07:28 51°10.268 2°34.487 218 0.2 238 5.3
2011-10-13 10:08:32 51°10.264 2°34.48 219.7 0.5 215 -999
2011-10-13 10:09:32 51°10.257 2°34.471 221.2 0.6 229 -999
2011-10-13 10:10:31 51°10.25 2°34.459 219.6 0.6 220 10.1
2011-10-13 10:11:29 51°10.242 2°34.446 217.3 0.7 217 10.1
2011-10-13 10:12:28 51°10.233 2°34.434 208.8 0.7 230 10.2
2011-10-13 10:13:28 51°10.224 2°34.423 201.6 0.7 213 10.5
2011-10-13 10:14:28 51°10.214 2°34.412 195.9 0.8 221 10.3
2011-10-13 10:15:28 51°10.204 2°34.401 191.2 0.8 209 10.5
2011-10-13 10:16:28 51°10.193 2°34.392 183.5 0.7 209 10.5
2011-10-13 10:17:28 51°10.183 2°34.383 178.7 0.8 212 10.8
2011-10-13 10:18:28 51°10.173 2°34.374 176.2 0.7 215 10.9
2011-10-13 10:19:28 51°10.163 2°34.365 174.8 0.7 216 11
2011-10-13 10:20:28 51°10.154 2°34.357 174.3 0.7 212 11.2
2011-10-13 10:21:28 51°10.144 2°34.349 176.2 0.7 213 11.4
2011-10-13 10:22:28 51°10.134 2°34.342 178.6 0.6 201 11.3
2011-10-13 10:23:28 51°10.125 2°34.334 179.3 0.7 210 11.4
2011-10-13 10:24:28 51°10.115 2°34.328 178.7 0.6 199 11.4
2011-10-13 10:25:28 51°10.106 2°34.321 179.4 0.6 210 11.7
2011-10-13 10:26:28 51°10.098 2°34.314 181.5 0.6 209 11.6
2011-10-13 10:27:29 51°10.088 2°34.309 182.5 0.6 198 11.7
2011-10-13 10:28:28 51°10.078 2°34.305 183 0.6 190 11.7
2011-10-13 10:29:28 51°10.06 2°34.305 166.6 1.7 171 11.9
2011-10-13 10:30:28 51°10.026 2°34.342 123.2 3.2 127 11.9
2011-10-13 10:31:28 51°9.997 2°34.454 108.2 5.9 113 12.2
2011-10-13 10:32:28 51°9.955 2°34.631 103.9 8.1 104 12.2
2011-10-13 10:33:28 51°9.932 2°34.853 95.7 8.8 97 12.6
2011-10-13 10:34:28 51°9.914 2°35.085 96.2 8.9 97 15.3
2011-10-13 10:35:28 51°9.893 2°35.318 98.2 8.9 98 18.4
2011-10-13 10:36:28 51°9.868 2°35.55 99.8 8.9 100 19.6
2011-10-13 10:37:28 51°9.844 2°35.782 98.7 8.9 98 20
2011-10-13 10:38:28 51°9.835 2°36.016 85.4 8.7 85 19.5
2011-10-13 10:39:28 51°9.867 2°36.242 75.3 8.8 76 19.2
2011-10-13 10:40:28 51°9.902 2°36.47 77 9 77 19.5
2011-10-13 10:41:28 51°9.935 2°36.701 77.6 9 77 19.1
2011-10-13 10:42:28 51°9.964 2°36.933 80 8.9 81 19
2011-10-13 10:43:28 51°9.987 2°37.168 81.2 9 81 18.9
2011-10-13 10:44:28 51°10.011 2°37.403 79.7 9.2 80 19.1
2011-10-13 10:45:28 51°10.055 2°37.702 74.4 12.5 74 18.5
2011-10-13 10:46:28 51°10.14 2°38.007 61.8 12.6 62 17.8
2011-10-13 10:47:28 51°10.239 2°38.302 61.1 12.6 62 18
2011-10-13 10:48:28 51°10.326 2°38.608 67.6 12.7 67 17.4
2011-10-13 10:49:28 51°10.409 2°38.917 64.7 12.6 64 17.7
2011-10-13 10:50:28 51°10.503 2°39.219 65 12.7 64 17.1
2011-10-13 10:51:28 51°10.604 2°39.515 60.3 12.7 61 16.6
2011-10-13 10:52:28 51°10.715 2°39.802 57.4 12.7 58 16
2011-10-13 10:53:28 51°10.818 2°40.097 61.1 12.7 61 15.8
2011-10-13 10:54:28 51°10.923 2°40.392 57.6 12.8 57 15.3
2011-10-13 10:55:28 51°11.036 2°40.68 58.7 12.8 60 14.9
2011-10-13 10:56:28 51°11.123 2°40.992 66.4 12.9 66 14.4
2011-10-13 10:57:28 51°11.219 2°41.296 60.4 12.9 62 14.2
2011-10-13 10:58:28 51°11.315 2°41.601 64.3 12.9 66 13.7
2011-10-13 10:59:28 51°11.4 2°41.912 62.5 12.8 63 13.4
2011-10-13 11:00:28 51°11.496 2°42.218 63.5 12.9 66 12.9
2011-10-13 11:01:28 51°11.559 2°42.546 74.1 13 76 12.9
2011-10-13 11:02:28 51°11.61 2°42.879 72.2 13 74 12.8
2011-10-13 11:03:28 51°11.649 2°43.218 83.6 13.1 84 12.3
2011-10-13 11:04:28 51°11.677 2°43.562 82.4 13.2 82 12.5
2011-10-13 11:05:28 51°11.711 2°43.906 80.5 13.1 80 12.7
2011-10-13 11:06:28 51°11.746 2°44.249 88.5 13 89 12.8
2011-10-13 11:07:28 51°11.73 2°44.597 98.1 13.1 98 14.3
2011-10-13 11:08:28 51°11.709 2°44.946 96.6 13.1 94 14.9
2011-10-13 11:09:28 51°11.734 2°45.293 77.1 13.3 76 15
2011-10-13 11:10:28 51°11.797 2°45.631 75.5 13.3 76 15.1
2011-10-13 11:11:28 51°11.852 2°45.974 76.8 13.4 76 15
2011-10-13 11:12:28 51°11.89 2°46.303 79.6 10.6 79 15.2
2011-10-13 11:13:28 51°11.919 2°46.541 78.9 8.4 77 15.4
2011-10-13 11:14:28 51°11.956 2°46.751 72.7 8 73 15.2
2011-10-13 11:15:28 51°11.997 2°46.941 72.7 7.4 72 15.1
2011-10-13 11:16:28 51°12.031 2°47.127 74.3 7.4 74 15
2011-10-13 11:17:28 51°12.063 2°47.313 76.8 7.3 76 15.2
2011-10-13 11:18:28 51°12.096 2°47.497 74.1 7.2 73 15.1
2011-10-13 11:19:28 51°12.133 2°47.677 72.2 7.2 70 14.6
2011-10-13 11:20:28 51°12.171 2°47.856 74.4 7.1 72 14.7
2011-10-13 11:21:28 51°12.204 2°48.037 76.5 7.1 74 14.5
2011-10-13 11:22:28 51°12.238 2°48.218 74.8 7.2 73 14.3
2011-10-13 11:23:28 51°12.291 2°48.384 53.5 7.1 55 14.5
2011-10-13 11:24:28 51°12.368 2°48.53 47.1 7.2 49 14.5
2011-10-13 11:25:28 51°12.448 2°48.676 47.5 7.3 49 14.5
2011-10-13 11:26:28 51°12.525 2°48.829 53.6 7.4 56 14.7
2011-10-13 11:27:28 51°12.584 2°49.002 67.3 7.4 67 14.7
2011-10-13 11:28:28 51°12.632 2°49.185 67.6 7.4 66 14.4
2011-10-13 11:29:28 51°12.683 2°49.366 66.6 7.5 66 14.4
2011-10-13 11:30:28 51°12.736 2°49.547 64.7 7.5 64 14.1
2011-10-13 11:31:28 51°12.795 2°49.725 61.7 7.6 61 14.2
2011-10-13 11:32:28 51°12.854 2°49.902 64.3 7 62 14.1
2011-10-13 11:33:28 51°12.877 2°50.013 102.2 2.6 79 14
2011-10-13 11:34:31 51°12.891 2°50.047 141.3 1.3 52 -999
2011-10-13 11:35:32 51°12.904 2°50.074 159 1.2 52 13.9
2011-10-13 11:36:29 51°12.916 2°50.1 171.3 1.3 56 13.9
2011-10-13 11:37:28 51°12.927 2°50.127 180 1.2 55 14
2011-10-13 11:38:28 51°12.938 2°50.156 183.2 1.3 61 14
2011-10-13 11:39:28 51°12.949 2°50.183 180.8 1.2 61 14.1
2011-10-13 11:40:28 51°12.959 2°50.212 176.1 1.3 58 14.1
2011-10-13 11:41:28 51°12.97 2°50.241 175.3 1.3 58 14
2011-10-13 11:42:28 51°12.927 2°50.251 197.7 6.6 186 14.1
2011-10-13 11:43:28 51°12.777 2°50.201 199 10.4 195 13.1
2011-10-13 11:44:28 51°12.619 2°50.132 200 9.4 197 12.4
2011-10-13 11:45:28 51°12.489 2°50.032 210.6 7.4 206 12
2011-10-13 11:46:28 51°12.396 2°49.956 212 5.8 206 12.2
2011-10-13 11:47:28 51°12.315 2°49.869 220.7 6.1 218 12
2011-10-13 11:48:28 51°12.236 2°49.807 208.4 4.6 200 12.3
2011-10-13 11:49:28 51°12.19 2°49.8 193.5 1.8 160 12.1
2011-10-13 11:50:28 51°12.174 2°49.83 178.2 1.3 97 12.1
2011-10-13 11:51:28 51°12.185 2°49.859 174.2 1.3 55 12
2011-10-13 11:52:28 51°12.198 2°49.884 174.8 1.2 52 12
2011-10-13 11:53:28 51°12.211 2°49.91 175.3 1.3 43 12
2011-10-13 11:54:31 51°12.246 2°49.94 197.6 2.6 33 -999
2011-10-13 11:55:31 51°12.278 2°49.977 211.1 2.2 41 12.1
2011-10-13 11:56:28 51°12.297 2°50.006 224.2 1.3 43 12.4
2011-10-13 11:57:28 51°12.309 2°50.023 236.9 0.6 17 12.3
2011-10-13 11:58:28 51°12.321 2°50.002 284.5 2.2 320 12.4
2011-10-13 11:59:28 51°12.382 2°49.994 358.6 4.7 17 12.5
2011-10-13 12:00:28 51°12.466 2°50.104 43.7 9 44 12.1
2011-10-13 12:01:28 51°12.582 2°50.304 52.3 11.1 53 12.4
2011-10-13 12:02:28 51°12.709 2°50.576 53.5 13.8 53 12.7
2011-10-13 12:03:28 51°12.85 2°50.868 50.9 13.9 51 12.4
2011-10-13 12:04:28 51°13.003 2°51.146 45.1 13.9 46 12.6
2011-10-13 12:05:28 51°13.141 2°51.446 57.8 14.1 58 13
2011-10-13 12:06:28 51°13.268 2°51.758 57 14 57 13.1
2011-10-13 12:07:28 51°13.404 2°52.058 52.7 14 52 12.9
2011-10-13 12:08:28 51°13.549 2°52.347 51 14 51 12.9
2011-10-13 12:09:28 51°13.693 2°52.639 53.1 14.1 54 12.7
2011-10-13 12:10:28 51°13.832 2°52.941 53.8 14.1 53 12.8
2011-10-13 12:11:28 51°13.979 2°53.229 50.2 14 51 12.4
2011-10-13 12:12:28 51°14.121 2°53.526 54.5 14 55 12.5
2011-10-13 12:13:28 51°14.268 2°53.815 49.8 14.1 52 12.3
2011-10-13 12:14:28 51°14.412 2°54.11 53 14.1 53 12.3
2011-10-13 12:15:28 51°14.547 2°54.414 60.3 14.1 61 13.1
2011-10-13 12:16:28 51°14.604 2°54.758 103.2 13 100 14.5
2011-10-13 12:17:28 51°14.503 2°55.044 141.8 11.9 144 14.3
2011-10-13 12:18:28 51°14.358 2°55.196 145 9 148 13.3
2011-10-13 12:19:28 51°14.24 2°55.313 145.2 8 149 14
2011-10-13 12:20:28 51°14.125 2°55.418 150.8 8 153 13.9
2011-10-13 12:21:28 51°14.002 2°55.503 155 8.1 157 14.2
2011-10-13 12:22:28 51°13.889 2°55.583 154 6.6 155 14.8
2011-10-13 12:23:28 51°13.794 2°55.664 143.9 6.2 144 14.5
2011-10-13 12:24:28 51°13.728 2°55.76 129.9 4.8 133 14.9
2011-10-13 12:25:28 51°13.681 2°55.854 124.4 4.2 126 13.4
2011-10-13 12:26:28 51°13.652 2°55.938 110.8 3.4 114 13.9
2011-10-13 12:27:28 51°13.639 2°56.007 103.6 1.5 104 10.4